createdAt,value
2023-02-27T00:01:43.243Z,4.00
2023-02-27T00:04:13.650Z,4.00
2023-02-27T00:06:44.020Z,4.00
2023-02-27T00:09:14.325Z,4.00
2023-02-27T00:11:47.239Z,4.10
2023-02-27T00:14:18.109Z,3.90
2023-02-27T00:16:48.416Z,3.90
2023-02-27T00:19:18.983Z,3.90
2023-02-27T00:21:49.301Z,3.90
2023-02-27T00:24:19.594Z,4.10
2023-02-27T00:26:52.586Z,4.00
2023-02-27T00:29:22.913Z,3.90
2023-02-27T00:31:55.398Z,3.90
2023-02-27T00:34:25.811Z,3.80
2023-02-27T00:36:56.558Z,3.80
2023-02-27T00:39:27.773Z,3.80
2023-02-27T00:42:00.689Z,3.80
2023-02-27T00:44:31.023Z,3.90
2023-02-27T00:47:01.516Z,3.90
2023-02-27T00:49:32.005Z,3.80
2023-02-27T00:52:02.464Z,3.80
2023-02-27T00:54:33.130Z,3.70
2023-02-27T00:57:06.259Z,3.70
2023-02-27T00:59:36.596Z,3.60
2023-02-27T01:02:07.164Z,3.60
2023-02-27T01:04:37.548Z,3.60
2023-02-27T01:07:10.282Z,3.50
2023-02-27T01:09:40.927Z,3.50
2023-02-27T01:12:15.788Z,3.60
2023-02-27T01:14:47.711Z,3.50
2023-02-27T01:17:20.951Z,3.60
2023-02-27T01:19:51.255Z,3.60
2023-02-27T01:22:21.583Z,3.50
2023-02-27T01:24:51.880Z,3.60
2023-02-27T01:27:24.850Z,3.50
2023-02-27T01:29:55.108Z,3.60
2023-02-27T01:32:26.803Z,3.50
2023-02-27T01:34:57.194Z,3.60
2023-02-27T01:37:29.548Z,3.60
2023-02-27T01:39:59.855Z,3.60
2023-02-27T01:42:32.761Z,3.60
2023-02-27T01:45:27.038Z,3.60
2023-02-27T01:48:01.947Z,3.60
2023-02-27T01:50:32.544Z,3.60
2023-02-27T01:53:05.121Z,3.60
2023-02-27T01:55:40.148Z,3.60
2023-02-27T01:58:15.322Z,3.60
2023-02-27T02:00:46.377Z,3.70
2023-02-27T02:03:24.290Z,3.50
2023-02-27T02:05:56.869Z,3.50
2023-02-27T02:08:30.317Z,3.50
2023-02-27T02:11:04.643Z,3.60
2023-02-27T02:13:38.398Z,3.60
2023-02-27T02:16:24.271Z,3.50
2023-02-27T02:19:10.994Z,3.40
2023-02-27T02:22:04.885Z,3.50
2023-02-27T02:25:13.122Z,3.40
2023-02-27T02:27:59.588Z,3.40
2023-02-27T02:31:02.668Z,3.50
2023-02-27T02:34:01.651Z,3.40
2023-02-27T02:37:20.239Z,3.30
2023-02-27T02:40:06.504Z,3.40
2023-02-27T02:42:43.698Z,3.30
2023-02-27T02:45:20.784Z,3.40
2023-02-27T02:48:03.107Z,3.30
2023-02-27T02:50:39.023Z,3.40
2023-02-27T02:53:17.205Z,3.30
2023-02-27T02:55:54.972Z,3.30
2023-02-27T02:58:31.167Z,3.20
2023-02-27T03:01:15.967Z,3.20
2023-02-27T03:03:51.603Z,3.20
2023-02-27T03:06:28.261Z,3.10
2023-02-27T03:09:02.081Z,3.20
2023-02-27T03:11:40.085Z,3.10
2023-02-27T03:14:16.535Z,3.30
2023-02-27T03:16:53.405Z,3.10
2023-02-27T03:19:28.628Z,3.20
2023-02-27T03:22:05.408Z,3.10
2023-02-27T03:24:38.824Z,3.20
2023-02-27T03:27:13.068Z,3.10
2023-02-27T03:29:48.977Z,3.10
2023-02-27T03:32:22.188Z,3.10
2023-02-27T03:34:53.152Z,3.20
2023-02-27T03:37:30.942Z,3.00
2023-02-27T03:40:06.638Z,3.10
2023-02-27T03:42:42.699Z,3.10
2023-02-27T03:45:30.690Z,3.10
2023-02-27T03:48:01.324Z,3.00
2023-02-27T03:50:33.035Z,3.10
2023-02-27T03:53:05.217Z,3.00
2023-02-27T03:55:39.387Z,2.90
2023-02-27T03:58:12.791Z,2.90
2023-02-27T04:00:43.777Z,3.00
2023-02-27T04:03:14.736Z,2.90
2023-02-27T04:05:45.659Z,2.90
2023-02-27T04:08:40.200Z,2.90
2023-02-27T04:11:27.859Z,2.90
2023-02-27T04:14:23.819Z,3.00
2023-02-27T04:17:14.789Z,2.90
2023-02-27T04:20:06.129Z,2.90
2023-02-27T04:22:41.139Z,2.80
2023-02-27T04:25:42.292Z,2.80
2023-02-27T04:28:20.407Z,2.80
2023-02-27T04:31:04.501Z,2.70
2023-02-27T04:33:48.393Z,2.70
2023-02-27T04:36:26.421Z,2.70
2023-02-27T04:39:05.101Z,2.80
2023-02-27T04:41:40.579Z,2.70
2023-02-27T04:44:13.909Z,2.60
2023-02-27T04:46:48.798Z,2.60
2023-02-27T04:49:24.602Z,2.60
2023-02-27T04:51:59.610Z,2.60
2023-02-27T04:54:35.075Z,2.50
2023-02-27T04:57:10.744Z,2.60
2023-02-27T04:59:46.891Z,2.60
2023-02-27T05:02:25.128Z,2.50
2023-02-27T05:04:59.933Z,2.50
2023-02-27T05:07:34.126Z,2.50
2023-02-27T05:10:07.284Z,2.50
2023-02-27T05:12:41.874Z,2.40
2023-02-27T05:15:16.847Z,2.50
2023-02-27T05:18:02.061Z,2.40
2023-02-27T05:20:40.525Z,2.40
2023-02-27T05:23:15.371Z,2.40
2023-02-27T05:25:52.431Z,2.40
2023-02-27T05:28:33.424Z,2.40
2023-02-27T05:31:08.127Z,2.30
2023-02-27T05:33:45.901Z,2.30
2023-02-27T05:36:21.660Z,2.30
2023-02-27T05:38:55.896Z,2.20
2023-02-27T05:41:31.479Z,2.30
2023-02-27T05:44:06.753Z,2.20
2023-02-27T05:46:40.406Z,2.30
2023-02-27T05:49:17.668Z,2.20
2023-02-27T05:51:53.160Z,2.20
2023-02-27T05:54:29.699Z,2.20
2023-02-27T05:57:02.193Z,2.30
2023-02-27T05:59:39.173Z,2.10
2023-02-27T06:02:09.950Z,2.10
2023-02-27T06:04:44.418Z,2.10
2023-02-27T06:07:15.964Z,2.10
2023-02-27T06:09:47.422Z,2.10
2023-02-27T06:12:17.782Z,2.10
2023-02-27T06:14:48.147Z,2.10
2023-02-27T06:17:18.519Z,2.10
2023-02-27T06:19:51.806Z,2.00
2023-02-27T06:22:22.161Z,2.10
2023-02-27T06:24:52.486Z,2.00
2023-02-27T06:27:22.861Z,2.10
2023-02-27T06:29:53.728Z,2.10
2023-02-27T06:32:25.589Z,1.90
2023-02-27T06:34:58.565Z,1.90
2023-02-27T06:37:28.987Z,1.90
2023-02-27T06:39:59.309Z,1.90
2023-02-27T06:42:30.010Z,1.90
2023-02-27T06:45:00.310Z,2.00
2023-02-27T06:47:30.669Z,1.90
2023-02-27T06:50:05.489Z,1.90
2023-02-27T06:52:36.062Z,1.80
2023-02-27T06:55:07.566Z,1.80
2023-02-27T06:57:38.257Z,1.90
2023-02-27T07:00:11.929Z,1.90
2023-02-27T07:02:42.413Z,1.90
2023-02-27T07:05:15.454Z,1.90
2023-02-27T07:07:45.924Z,1.90
2023-02-27T07:10:19.065Z,1.80
2023-02-27T07:12:49.583Z,1.80
2023-02-27T07:15:20.514Z,1.90
2023-02-27T07:20:31.068Z,1.90
2023-02-27T07:23:02.115Z,1.90
2023-02-27T07:25:33.456Z,1.90
2023-02-27T07:28:05.294Z,1.90
2023-02-27T07:30:35.733Z,2.00
2023-02-27T07:33:06.175Z,1.90
2023-02-27T07:35:39.594Z,1.90
2023-02-27T07:38:10.263Z,1.90
2023-02-27T07:40:40.771Z,2.00
2023-02-27T07:43:12.171Z,1.90
2023-02-27T07:45:42.986Z,1.90
2023-02-27T07:48:14.054Z,2.00
2023-02-27T07:50:47.063Z,1.90
2023-02-27T07:53:17.693Z,2.00
2023-02-27T07:55:52.498Z,2.00
2023-02-27T07:58:23.955Z,2.00
2023-02-27T08:00:57.463Z,2.00
2023-02-27T08:03:27.827Z,2.00
2023-02-27T08:06:02.334Z,2.10
2023-02-27T08:08:33.476Z,2.10
2023-02-27T08:11:03.821Z,1.90
2023-02-27T08:16:24.688Z,1.90
2023-02-27T08:18:55.130Z,1.90
2023-02-27T08:21:28.580Z,2.00
2023-02-27T08:23:59.151Z,2.00
2023-02-27T08:26:29.713Z,2.00
2023-02-27T08:29:00.433Z,2.10
2023-02-27T08:31:30.938Z,2.00
2023-02-27T08:34:09.860Z,2.00
2023-02-27T08:36:44.026Z,2.20
2023-02-27T08:39:14.641Z,2.10
2023-02-27T08:41:45.039Z,2.20
2023-02-27T08:44:15.573Z,2.20
2023-02-27T08:46:45.927Z,2.20
2023-02-27T08:49:16.624Z,2.20
2023-02-27T08:51:49.556Z,2.20
2023-02-27T08:54:20.782Z,2.40
2023-02-27T08:56:51.646Z,2.40
2023-02-27T08:59:22.069Z,2.40
2023-02-27T09:01:52.437Z,2.50
2023-02-27T09:04:23.136Z,2.50
2023-02-27T09:06:57.561Z,2.60
2023-02-27T09:09:28.198Z,2.60
2023-02-27T09:11:58.649Z,2.60
2023-02-27T09:14:28.985Z,2.70
2023-02-27T09:16:59.443Z,2.70
2023-02-27T09:19:30.119Z,2.70
2023-02-27T09:22:03.212Z,2.90
2023-02-27T09:24:33.566Z,2.90
2023-02-27T09:27:04.700Z,2.90
2023-02-27T09:29:35.056Z,3.00
2023-02-27T09:32:05.510Z,3.10
2023-02-27T09:34:36.297Z,3.10
2023-02-27T09:37:09.211Z,3.20
2023-02-27T09:39:39.537Z,3.10
2023-02-27T09:42:18.230Z,3.20
2023-02-27T09:44:51.702Z,3.30
2023-02-27T09:47:27.779Z,3.40
2023-02-27T09:50:03.108Z,3.50
2023-02-27T09:52:39.170Z,3.40
2023-02-27T09:55:14.807Z,3.70
2023-02-27T09:57:51.225Z,3.60
2023-02-27T10:00:36.473Z,3.70
2023-02-27T10:03:16.771Z,3.70
2023-02-27T10:05:53.517Z,3.80
2023-02-27T10:08:32.336Z,3.80
2023-02-27T10:11:06.653Z,3.80
2023-02-27T10:13:50.492Z,3.90
2023-02-27T10:16:25.740Z,4.00
2023-02-27T10:19:00.180Z,4.10
2023-02-27T10:21:37.006Z,4.10
2023-02-27T10:24:21.804Z,4.10
2023-02-27T10:26:54.808Z,4.30
2023-02-27T10:29:31.858Z,4.30
2023-02-27T10:32:07.515Z,4.30
2023-02-27T10:34:39.503Z,4.50
2023-02-27T10:37:11.909Z,4.50
2023-02-27T10:39:49.684Z,4.50
2023-02-27T10:42:21.146Z,4.60
2023-02-27T10:44:54.022Z,4.40
2023-02-27T10:47:26.806Z,4.60
2023-02-27T10:50:00.541Z,4.70
2023-02-27T10:52:31.249Z,4.80
2023-02-27T10:55:21.229Z,4.70
2023-02-27T10:57:52.366Z,4.80
2023-02-27T11:00:35.373Z,4.90
2023-02-27T11:03:05.893Z,5.00
2023-02-27T11:05:39.750Z,5.10
2023-02-27T11:08:23.942Z,5.10
2023-02-27T11:11:06.967Z,5.20
2023-02-27T11:13:39.642Z,5.40
2023-02-27T11:16:13.753Z,5.40
2023-02-27T11:18:45.065Z,5.50
2023-02-27T11:21:23.151Z,5.50
2023-02-27T11:23:56.300Z,5.50
2023-02-27T11:26:36.434Z,5.60
2023-02-27T11:29:09.213Z,5.70
2023-02-27T11:31:41.110Z,5.70
2023-02-27T11:34:20.961Z,5.80
2023-02-27T11:36:53.250Z,5.70
2023-02-27T11:39:30.183Z,5.80
2023-02-27T11:42:27.175Z,5.90
2023-02-27T11:45:01.448Z,5.80
2023-02-27T11:47:36.262Z,6.00
2023-02-27T11:50:34.322Z,5.90
2023-02-27T11:53:16.368Z,6.00
2023-02-27T11:55:49.050Z,6.10
2023-02-27T11:58:28.444Z,6.10
2023-02-27T12:01:04.607Z,6.00
2023-02-27T12:03:43.792Z,6.00
2023-02-27T12:06:19.997Z,6.20
2023-02-27T12:08:55.736Z,6.30
2023-02-27T12:11:30.446Z,6.30
2023-02-27T12:14:09.328Z,6.40
2023-02-27T12:16:43.593Z,6.40
2023-02-27T12:19:22.375Z,6.50
2023-02-27T12:21:56.110Z,6.60
2023-02-27T12:24:32.008Z,6.80
2023-02-27T12:27:14.968Z,6.60
2023-02-27T12:29:54.177Z,6.50
2023-02-27T12:32:28.155Z,6.70
2023-02-27T12:35:02.398Z,6.90
2023-02-27T12:37:35.123Z,6.90
2023-02-27T12:40:10.946Z,6.70
2023-02-27T12:42:56.915Z,6.70
2023-02-27T12:45:50.562Z,6.70
2023-02-27T12:48:29.299Z,6.90
2023-02-27T12:51:08.326Z,6.90
2023-02-27T12:53:57.419Z,6.90
2023-02-27T12:56:37.126Z,7.00
2023-02-27T12:59:18.861Z,7.20
2023-02-27T13:01:59.433Z,7.20
2023-02-27T13:04:40.361Z,7.20
2023-02-27T13:07:16.432Z,7.30
2023-02-27T13:09:52.122Z,7.50
2023-02-27T13:12:29.229Z,7.50
2023-02-27T13:15:03.174Z,7.70
2023-02-27T13:17:41.707Z,7.80
2023-02-27T13:20:19.881Z,7.80
2023-02-27T13:22:56.563Z,8.10
2023-02-27T13:25:27.722Z,8.20
2023-02-27T13:28:01.393Z,8.10
2023-02-27T13:30:37.261Z,8.00
2023-02-27T13:33:23.100Z,8.20
2023-02-27T13:35:59.535Z,8.10
2023-02-27T13:38:36.114Z,8.30
2023-02-27T13:41:50.732Z,8.10
2023-02-27T13:44:44.798Z,8.40
2023-02-27T13:47:55.533Z,7.80
2023-02-27T13:50:55.174Z,7.70
2023-02-27T13:53:25.778Z,7.80
2023-02-27T13:56:01.346Z,7.80
2023-02-27T13:58:31.795Z,7.80
2023-02-27T14:01:05.740Z,8.10
2023-02-27T14:03:36.513Z,8.10
2023-02-27T14:06:09.793Z,7.90
2023-02-27T14:09:08.792Z,8.00
2023-02-27T14:11:56.332Z,8.20
2023-02-27T14:14:46.754Z,8.40
2023-02-27T14:17:38.295Z,8.30
2023-02-27T14:20:13.851Z,8.40
2023-02-27T14:23:16.260Z,8.40
2023-02-27T14:25:49.649Z,8.30
2023-02-27T14:28:26.581Z,8.10
2023-02-27T14:31:03.096Z,8.30
2023-02-27T14:33:42.302Z,8.40
2023-02-27T14:36:19.938Z,8.20
2023-02-27T14:38:55.153Z,8.10
2023-02-27T14:41:38.473Z,8.20
2023-02-27T14:44:08.781Z,8.00
2023-02-27T14:46:42.199Z,8.20
2023-02-27T14:49:22.753Z,8.10
2023-02-27T14:51:53.871Z,7.90
2023-02-27T14:54:28.221Z,7.90
2023-02-27T14:57:00.081Z,8.00
2023-02-27T14:59:34.240Z,8.00
2023-02-27T15:02:06.754Z,8.00
2023-02-27T15:04:37.551Z,8.00
2023-02-27T15:07:07.958Z,8.10
2023-02-27T15:09:44.918Z,8.10
2023-02-27T15:12:21.506Z,8.00
2023-02-27T15:14:56.091Z,7.90
2023-02-27T15:17:28.397Z,7.90
2023-02-27T15:20:01.542Z,7.80
2023-02-27T15:22:39.715Z,7.80
2023-02-27T15:25:24.956Z,7.90
2023-02-27T15:27:59.434Z,7.80
2023-02-27T15:30:30.053Z,7.70
2023-02-27T15:33:01.085Z,7.60
2023-02-27T15:35:38.162Z,7.70
2023-02-27T15:38:08.614Z,7.60
2023-02-27T15:40:39.232Z,7.70
2023-02-27T15:43:12.926Z,7.80
2023-02-27T15:45:43.592Z,7.70
2023-02-27T15:48:16.860Z,7.60
2023-02-27T15:50:50.052Z,7.50
2023-02-27T15:53:23.912Z,7.40
2023-02-27T15:55:56.586Z,7.50
2023-02-27T15:58:32.032Z,7.50
2023-02-27T16:01:11.432Z,7.60
2023-02-27T16:03:46.056Z,7.70
2023-02-27T16:06:21.683Z,7.70
2023-02-27T16:08:56.306Z,7.60
2023-02-27T16:11:37.496Z,7.70
2023-02-27T16:14:37.712Z,7.70
2023-02-27T16:17:33.129Z,7.50
2023-02-27T16:20:08.511Z,7.50
2023-02-27T16:22:39.602Z,7.40
2023-02-27T16:25:21.477Z,7.60
2023-02-27T16:27:53.755Z,7.50
2023-02-27T16:30:25.210Z,7.50
2023-02-27T16:33:03.786Z,7.50
2023-02-27T16:35:35.518Z,7.50
2023-02-27T16:38:05.922Z,7.40
2023-02-27T16:40:36.265Z,7.30
2023-02-27T16:43:07.011Z,7.30
2023-02-27T16:45:37.422Z,7.30
2023-02-27T16:48:10.702Z,7.30
2023-02-27T16:50:44.091Z,7.20
2023-02-27T16:53:14.663Z,7.20
2023-02-27T16:55:45.267Z,7.20
2023-02-27T16:58:16.900Z,7.20
2023-02-27T17:00:47.532Z,7.20
2023-02-27T17:03:20.672Z,7.30
2023-02-27T17:05:51.516Z,7.20
2023-02-27T17:08:22.466Z,7.10
2023-02-27T17:10:53.523Z,7.20
2023-02-27T17:13:24.040Z,7.20
2023-02-27T17:15:54.453Z,7.10
2023-02-27T17:18:28.714Z,7.10
2023-02-27T17:20:59.426Z,7.00
2023-02-27T17:23:29.946Z,7.10
2023-02-27T17:26:00.285Z,7.00
2023-02-27T17:28:30.728Z,7.00
2023-02-27T17:31:02.777Z,6.90
2023-02-27T17:33:36.959Z,7.00
2023-02-27T17:36:09.152Z,7.10
2023-02-27T17:38:40.104Z,7.00
2023-02-27T17:41:11.374Z,7.00
2023-02-27T17:43:41.976Z,6.90
2023-02-27T17:46:14.731Z,6.80
2023-02-27T17:48:47.946Z,6.90
2023-02-27T17:51:20.432Z,6.90
2023-02-27T17:53:53.912Z,6.80
2023-02-27T17:56:24.497Z,6.80
2023-02-27T17:58:54.826Z,6.70
2023-02-27T18:01:34.587Z,6.80
2023-02-27T18:04:11.556Z,6.80
2023-02-27T18:06:42.095Z,6.90
2023-02-27T18:09:12.603Z,6.90
2023-02-27T18:11:43.246Z,6.90
2023-02-27T18:14:14.038Z,6.90
2023-02-27T18:16:45.317Z,6.90
2023-02-27T18:19:18.503Z,6.80
2023-02-27T18:21:49.036Z,6.90
2023-02-27T18:24:19.496Z,6.90
2023-02-27T18:26:50.107Z,6.90
2023-02-27T18:29:20.578Z,7.00
2023-02-27T18:31:53.722Z,6.80
2023-02-27T18:34:27.153Z,6.80
2023-02-27T18:36:58.327Z,6.80
2023-02-27T18:39:28.854Z,6.80
2023-02-27T18:41:59.499Z,6.90
2023-02-27T18:44:29.895Z,6.80
2023-02-27T18:47:00.313Z,6.80
2023-02-27T18:49:33.428Z,6.80
2023-02-27T18:52:03.926Z,6.80
2023-02-27T18:54:36.365Z,6.80
2023-02-27T18:57:06.849Z,6.80
2023-02-27T18:59:37.214Z,6.80
2023-02-27T19:02:07.895Z,6.70
2023-02-27T19:04:40.901Z,6.70
2023-02-27T19:07:11.392Z,6.70
2023-02-27T19:09:42.155Z,6.70
2023-02-27T19:12:13.058Z,6.70
2023-02-27T19:14:43.836Z,6.60
2023-02-27T19:17:14.236Z,6.50
2023-02-27T19:19:47.407Z,6.60
2023-02-27T19:22:17.793Z,6.60
2023-02-27T19:24:48.366Z,6.60
2023-02-27T19:27:18.734Z,6.60
2023-02-27T19:29:49.022Z,6.60
2023-02-27T19:32:19.440Z,6.60
2023-02-27T19:34:52.559Z,6.60
2023-02-27T19:37:23.021Z,6.50
2023-02-27T19:39:53.529Z,6.50
2023-02-27T19:42:23.906Z,6.40
2023-02-27T19:44:54.415Z,6.30
2023-02-27T19:47:24.877Z,6.30
2023-02-27T19:49:58.068Z,6.30
2023-02-27T19:52:28.500Z,6.20
2023-02-27T19:54:59.269Z,6.20
2023-02-27T19:57:29.729Z,6.20
2023-02-27T20:00:00.204Z,6.10
2023-02-27T20:02:30.634Z,6.10
2023-02-27T20:05:03.735Z,6.10
2023-02-27T20:07:34.050Z,6.00
2023-02-27T20:10:05.912Z,6.00
2023-02-27T20:12:36.279Z,6.00
2023-02-27T20:15:11.070Z,6.00
2023-02-27T20:17:42.538Z,5.90
2023-02-27T20:20:16.859Z,6.00
2023-02-27T20:22:47.383Z,6.00
2023-02-27T20:25:17.721Z,6.00
2023-02-27T20:27:48.786Z,5.90
2023-02-27T20:30:19.388Z,5.90
2023-02-27T20:32:49.852Z,5.80
2023-02-27T20:35:23.448Z,5.90
2023-02-27T20:37:54.115Z,5.90
2023-02-27T20:40:26.195Z,5.80
2023-02-27T20:42:56.936Z,5.80
2023-02-27T20:45:28.314Z,5.80
2023-02-27T20:47:58.746Z,5.70
2023-02-27T20:50:31.683Z,5.70
2023-02-27T20:53:02.012Z,5.60
2023-02-27T20:55:32.357Z,5.60
2023-02-27T20:58:02.686Z,5.60
2023-02-27T21:00:33.028Z,5.50
2023-02-27T21:03:03.740Z,5.50
2023-02-27T21:05:36.693Z,5.50
2023-02-27T21:08:07.218Z,5.40
2023-02-27T21:10:40.924Z,5.50
2023-02-27T21:13:11.349Z,5.40
2023-02-27T21:15:42.201Z,5.40
2023-02-27T21:18:13.129Z,5.40
2023-02-27T21:20:47.537Z,5.40
2023-02-27T21:23:18.005Z,5.40
2023-02-27T21:25:48.513Z,5.30
2023-02-27T21:28:19.862Z,5.30
2023-02-27T21:30:54.584Z,5.20
2023-02-27T21:33:25.077Z,5.10
2023-02-27T21:35:58.056Z,5.20
2023-02-27T21:38:28.521Z,5.10
2023-02-27T21:40:59.105Z,5.30
2023-02-27T21:43:29.538Z,5.10
2023-02-27T21:45:59.883Z,5.10
2023-02-27T21:48:30.243Z,5.10
2023-02-27T21:51:03.948Z,5.00
2023-02-27T21:53:36.721Z,5.10
2023-02-27T21:56:08.392Z,5.00
2023-02-27T21:58:39.840Z,4.90
2023-02-27T22:01:16.988Z,4.90
2023-02-27T22:03:48.553Z,4.90
2023-02-27T22:06:23.432Z,4.90
2023-02-27T22:08:57.603Z,4.90
2023-02-27T22:11:29.769Z,4.80
2023-02-27T22:14:00.428Z,4.80
2023-02-27T22:16:31.079Z,4.80
2023-02-27T22:19:01.541Z,4.80
2023-02-27T22:21:34.549Z,4.70
2023-02-27T22:24:04.934Z,4.70
2023-02-27T22:26:35.893Z,4.80
2023-02-27T22:29:07.687Z,4.70
2023-02-27T22:31:41.101Z,4.70
2023-02-27T22:34:18.264Z,4.70
2023-02-27T22:36:53.344Z,4.60
2023-02-27T22:39:24.008Z,4.60
2023-02-27T22:41:56.702Z,4.60
2023-02-27T22:44:27.276Z,4.60
2023-02-27T22:46:59.015Z,4.60
2023-02-27T22:49:29.418Z,4.60
2023-02-27T22:52:02.556Z,4.50
2023-02-27T22:54:33.367Z,4.50
2023-02-27T22:57:05.276Z,4.50
2023-02-27T22:59:35.651Z,4.50
2023-02-27T23:02:07.091Z,4.40
2023-02-27T23:04:38.025Z,4.50
2023-02-27T23:07:10.988Z,4.40
2023-02-27T23:09:41.406Z,4.40
2023-02-27T23:12:11.762Z,4.30
2023-02-27T23:14:42.179Z,4.30
2023-02-27T23:17:12.648Z,4.40
2023-02-27T23:19:44.002Z,4.30
2023-02-27T23:22:16.994Z,4.30
2023-02-27T23:24:47.292Z,4.30
2023-02-27T23:27:25.781Z,4.30
2023-02-27T23:29:56.944Z,4.20
2023-02-27T23:32:27.418Z,4.20
2023-02-27T23:34:57.733Z,4.20
2023-02-27T23:37:30.768Z,4.20
2023-02-27T23:40:01.149Z,4.20
2023-02-27T23:42:45.242Z,4.20
2023-02-27T23:45:25.839Z,4.20
2023-02-27T23:47:58.068Z,4.10
2023-02-27T23:50:30.874Z,4.20
2023-02-27T23:53:04.524Z,4.10
2023-02-27T23:55:36.934Z,4.20
2023-02-27T23:58:09.361Z,4.10
